sensor_id;sensor_type;location;lat;lon;timestamp;P1;durP1;ratioP1;P2;durP2;ratioP2
27704;SDS011;15109;50.992;6.918;2022-10-31T00:03:10;4.53;;;2.30;;
27704;SDS011;15109;50.992;6.918;2022-10-31T00:06:31;5.45;;;2.40;;
27704;SDS011;15109;50.992;6.918;2022-10-31T00:09:52;8.90;;;2.50;;
27704;SDS011;15109;50.992;6.918;2022-10-31T00:13:13;10.00;;;2.30;;
27704;SDS011;15109;50.992;6.918;2022-10-31T00:16:35;5.82;;;2.17;;
27704;SDS011;15109;50.992;6.918;2022-10-31T00:19:56;5.30;;;2.63;;
27704;SDS011;15109;50.992;6.918;2022-10-31T00:23:17;5.35;;;2.25;;
27704;SDS011;15109;50.992;6.918;2022-10-31T00:26:38;9.48;;;2.90;;
27704;SDS011;15109;50.992;6.918;2022-10-31T00:29:59;4.10;;;1.98;;
27704;SDS011;15109;50.992;6.918;2022-10-31T00:33:20;5.10;;;2.70;;
27704;SDS011;15109;50.992;6.918;2022-10-31T00:36:41;3.05;;;2.00;;
27704;SDS011;15109;50.992;6.918;2022-10-31T00:40:06;5.93;;;2.50;;
27704;SDS011;15109;50.992;6.918;2022-10-31T00:43:28;4.90;;;2.78;;
27704;SDS011;15109;50.992;6.918;2022-10-31T00:46:49;7.45;;;3.13;;
27704;SDS011;15109;50.992;6.918;2022-10-31T00:50:15;6.78;;;3.08;;
27704;SDS011;15109;50.992;6.918;2022-10-31T00:53:36;5.32;;;2.75;;
27704;SDS011;15109;50.992;6.918;2022-10-31T00:56:57;5.15;;;2.58;;
27704;SDS011;15109;50.992;6.918;2022-10-31T01:00:19;3.20;;;1.95;;
27704;SDS011;15109;50.992;6.918;2022-10-31T01:03:40;5.35;;;2.55;;
27704;SDS011;15109;50.992;6.918;2022-10-31T01:07:05;4.63;;;2.88;;
27704;SDS011;15109;50.992;6.918;2022-10-31T01:10:26;6.03;;;3.15;;
27704;SDS011;15109;50.992;6.918;2022-10-31T01:13:49;7.93;;;2.88;;
27704;SDS011;15109;50.992;6.918;2022-10-31T01:17:11;3.92;;;2.22;;
27704;SDS011;15109;50.992;6.918;2022-10-31T01:20:33;5.00;;;2.35;;
27704;SDS011;15109;50.992;6.918;2022-10-31T01:23:56;6.57;;;3.13;;
27704;SDS011;15109;50.992;6.918;2022-10-31T01:27:17;6.07;;;2.95;;
27704;SDS011;15109;50.992;6.918;2022-10-31T01:30:40;4.78;;;2.60;;
27704;SDS011;15109;50.992;6.918;2022-10-31T01:34:01;4.10;;;2.17;;
27704;SDS011;15109;50.992;6.918;2022-10-31T01:37:23;5.60;;;2.63;;
27704;SDS011;15109;50.992;6.918;2022-10-31T01:40:44;4.28;;;2.50;;
27704;SDS011;15109;50.992;6.918;2022-10-31T01:47:45;6.47;;;2.58;;
27704;SDS011;15109;50.992;6.918;2022-10-31T01:51:09;3.78;;;2.25;;
27704;SDS011;15109;50.992;6.918;2022-10-31T01:54:33;5.13;;;2.63;;
27704;SDS011;15109;50.992;6.918;2022-10-31T01:58:09;6.03;;;2.43;;
27704;SDS011;15109;50.992;6.918;2022-10-31T02:01:33;4.03;;;2.17;;
27704;SDS011;15109;50.992;6.918;2022-10-31T02:04:54;5.30;;;2.38;;
27704;SDS011;15109;50.992;6.918;2022-10-31T02:11:47;5.80;;;2.70;;
27704;SDS011;15109;50.992;6.918;2022-10-31T02:15:08;4.20;;;2.42;;
27704;SDS011;15109;50.992;6.918;2022-10-31T02:18:29;5.60;;;2.83;;
27704;SDS011;15109;50.992;6.918;2022-10-31T02:21:53;2.38;;;1.67;;
27704;SDS011;15109;50.992;6.918;2022-10-31T02:32:58;4.00;;;1.95;;
27704;SDS011;15109;50.992;6.918;2022-10-31T02:40:17;7.53;;;3.00;;
27704;SDS011;15109;50.992;6.918;2022-10-31T02:48:03;4.93;;;2.30;;
27704;SDS011;15109;50.992;6.918;2022-10-31T02:51:31;5.93;;;2.70;;
27704;SDS011;15109;50.992;6.918;2022-10-31T02:54:52;5.20;;;2.38;;
27704;SDS011;15109;50.992;6.918;2022-10-31T02:58:14;5.82;;;2.85;;
27704;SDS011;15109;50.992;6.918;2022-10-31T03:13:20;3.30;;;2.35;;
27704;SDS011;15109;50.992;6.918;2022-10-31T03:20:02;5.53;;;3.10;;
27704;SDS011;15109;50.992;6.918;2022-10-31T03:23:27;3.67;;;2.13;;
27704;SDS011;15109;50.992;6.918;2022-10-31T03:26:52;6.30;;;2.13;;
27704;SDS011;15109;50.992;6.918;2022-10-31T03:30:15;7.20;;;2.42;;
27704;SDS011;15109;50.992;6.918;2022-10-31T03:33:49;3.75;;;2.10;;
27704;SDS011;15109;50.992;6.918;2022-10-31T03:37:13;6.97;;;3.03;;
27704;SDS011;15109;50.992;6.918;2022-10-31T03:40:38;7.60;;;3.15;;
27704;SDS011;15109;50.992;6.918;2022-10-31T03:44:08;3.78;;;2.05;;
27704;SDS011;15109;50.992;6.918;2022-10-31T03:47:35;6.15;;;2.55;;
27704;SDS011;15109;50.992;6.918;2022-10-31T03:51:05;2.72;;;1.77;;
27704;SDS011;15109;50.992;6.918;2022-10-31T03:54:44;3.55;;;2.22;;
27704;SDS011;15109;50.992;6.918;2022-10-31T04:01:50;4.55;;;2.42;;
27704;SDS011;15109;50.992;6.918;2022-10-31T04:05:15;7.85;;;2.50;;
27704;SDS011;15109;50.992;6.918;2022-10-31T04:08:40;5.57;;;2.10;;
27704;SDS011;15109;50.992;6.918;2022-10-31T04:12:11;4.40;;;2.30;;
27704;SDS011;15109;50.992;6.918;2022-10-31T04:16:03;3.50;;;2.15;;
27704;SDS011;15109;50.992;6.918;2022-10-31T04:19:27;4.95;;;2.75;;
27704;SDS011;15109;50.992;6.918;2022-10-31T04:22:48;5.10;;;2.22;;
27704;SDS011;15109;50.992;6.918;2022-10-31T04:26:12;4.10;;;2.28;;
27704;SDS011;15109;50.992;6.918;2022-10-31T04:29:33;12.77;;;2.30;;
27704;SDS011;15109;50.992;6.918;2022-10-31T04:32:54;7.85;;;2.80;;
27704;SDS011;15109;50.992;6.918;2022-10-31T04:36:16;3.60;;;1.63;;
27704;SDS011;15109;50.992;6.918;2022-10-31T04:39:37;4.10;;;1.98;;
27704;SDS011;15109;50.992;6.918;2022-10-31T04:43:16;2.97;;;1.55;;
27704;SDS011;15109;50.992;6.918;2022-10-31T04:46:39;5.00;;;2.15;;
27704;SDS011;15109;50.992;6.918;2022-10-31T04:50:01;2.42;;;1.67;;
27704;SDS011;15109;50.992;6.918;2022-10-31T04:53:23;7.28;;;2.75;;
27704;SDS011;15109;50.992;6.918;2022-10-31T04:57:02;4.10;;;2.30;;
27704;SDS011;15109;50.992;6.918;2022-10-31T05:00:25;7.15;;;2.78;;
27704;SDS011;15109;50.992;6.918;2022-10-31T05:03:46;4.70;;;2.30;;
27704;SDS011;15109;50.992;6.918;2022-10-31T05:07:07;3.10;;;1.70;;
27704;SDS011;15109;50.992;6.918;2022-10-31T05:10:28;4.95;;;2.13;;
27704;SDS011;15109;50.992;6.918;2022-10-31T05:13:53;6.97;;;2.78;;
27704;SDS011;15109;50.992;6.918;2022-10-31T05:17:33;4.05;;;2.35;;
27704;SDS011;15109;50.992;6.918;2022-10-31T05:21:12;3.67;;;2.00;;
27704;SDS011;15109;50.992;6.918;2022-10-31T05:24:43;5.57;;;2.38;;
27704;SDS011;15109;50.992;6.918;2022-10-31T05:28:05;14.30;;;3.13;;
27704;SDS011;15109;50.992;6.918;2022-10-31T05:31:26;5.20;;;2.63;;
27704;SDS011;15109;50.992;6.918;2022-10-31T05:34:48;4.10;;;2.13;;
27704;SDS011;15109;50.992;6.918;2022-10-31T05:38:29;6.72;;;2.78;;
27704;SDS011;15109;50.992;6.918;2022-10-31T05:41:54;4.45;;;2.35;;
27704;SDS011;15109;50.992;6.918;2022-10-31T05:45:21;2.58;;;1.58;;
27704;SDS011;15109;50.992;6.918;2022-10-31T05:48:51;2.50;;;1.17;;
27704;SDS011;15109;50.992;6.918;2022-10-31T05:52:30;6.13;;;2.50;;
27704;SDS011;15109;50.992;6.918;2022-10-31T05:55:59;14.52;;;2.75;;
27704;SDS011;15109;50.992;6.918;2022-10-31T05:59:21;5.80;;;2.60;;
27704;SDS011;15109;50.992;6.918;2022-10-31T06:02:42;4.43;;;2.28;;
27704;SDS011;15109;50.992;6.918;2022-10-31T06:06:17;2.78;;;1.65;;
27704;SDS011;15109;50.992;6.918;2022-10-31T06:09:41;4.88;;;2.10;;
27704;SDS011;15109;50.992;6.918;2022-10-31T06:13:02;3.83;;;1.85;;
27704;SDS011;15109;50.992;6.918;2022-10-31T06:16:31;7.25;;;2.50;;
27704;SDS011;15109;50.992;6.918;2022-10-31T06:20:02;2.78;;;1.60;;
27704;SDS011;15109;50.992;6.918;2022-10-31T06:23:25;6.22;;;2.80;;
27704;SDS011;15109;50.992;6.918;2022-10-31T06:27:09;9.25;;;2.15;;
27704;SDS011;15109;50.992;6.918;2022-10-31T06:30:30;3.60;;;2.15;;
27704;SDS011;15109;50.992;6.918;2022-10-31T06:33:51;5.63;;;2.40;;
27704;SDS011;15109;50.992;6.918;2022-10-31T06:37:13;2.72;;;1.65;;
27704;SDS011;15109;50.992;6.918;2022-10-31T06:40:37;4.18;;;2.25;;
27704;SDS011;15109;50.992;6.918;2022-10-31T06:44:19;5.45;;;2.55;;
27704;SDS011;15109;50.992;6.918;2022-10-31T06:47:53;4.25;;;1.98;;
27704;SDS011;15109;50.992;6.918;2022-10-31T06:51:20;4.82;;;2.20;;
27704;SDS011;15109;50.992;6.918;2022-10-31T06:54:44;4.80;;;2.20;;
27704;SDS011;15109;50.992;6.918;2022-10-31T06:58:05;6.90;;;2.85;;
27704;SDS011;15109;50.992;6.918;2022-10-31T07:01:26;5.00;;;2.28;;
27704;SDS011;15109;50.992;6.918;2022-10-31T07:04:48;4.32;;;1.95;;
27704;SDS011;15109;50.992;6.918;2022-10-31T07:08:12;5.30;;;2.70;;
27704;SDS011;15109;50.992;6.918;2022-10-31T07:11:34;4.43;;;2.40;;
27704;SDS011;15109;50.992;6.918;2022-10-31T07:14:55;3.60;;;2.03;;
27704;SDS011;15109;50.992;6.918;2022-10-31T07:18:17;5.45;;;2.60;;
27704;SDS011;15109;50.992;6.918;2022-10-31T07:21:38;5.50;;;1.95;;
27704;SDS011;15109;50.992;6.918;2022-10-31T07:24:59;11.75;;;4.07;;
27704;SDS011;15109;50.992;6.918;2022-10-31T07:28:40;4.28;;;2.25;;
27704;SDS011;15109;50.992;6.918;2022-10-31T07:32:02;5.78;;;2.05;;
27704;SDS011;15109;50.992;6.918;2022-10-31T07:35:27;3.55;;;2.00;;
27704;SDS011;15109;50.992;6.918;2022-10-31T07:38:53;6.63;;;1.73;;
27704;SDS011;15109;50.992;6.918;2022-10-31T07:42:14;3.95;;;2.25;;
27704;SDS011;15109;50.992;6.918;2022-10-31T07:45:38;4.80;;;2.30;;
27704;SDS011;15109;50.992;6.918;2022-10-31T07:49:31;12.23;;;2.35;;
27704;SDS011;15109;50.992;6.918;2022-10-31T07:53:14;4.35;;;2.38;;
27704;SDS011;15109;50.992;6.918;2022-10-31T07:56:46;7.55;;;3.20;;
27704;SDS011;15109;50.992;6.918;2022-10-31T08:00:08;6.75;;;2.33;;
27704;SDS011;15109;50.992;6.918;2022-10-31T08:03:35;3.63;;;2.45;;
27704;SDS011;15109;50.992;6.918;2022-10-31T08:07:15;12.52;;;3.53;;
27704;SDS011;15109;50.992;6.918;2022-10-31T08:10:41;4.78;;;2.35;;
27704;SDS011;15109;50.992;6.918;2022-10-31T08:14:02;9.80;;;2.65;;
27704;SDS011;15109;50.992;6.918;2022-10-31T08:17:23;5.22;;;2.75;;
27704;SDS011;15109;50.992;6.918;2022-10-31T08:20:50;4.93;;;2.47;;
27704;SDS011;15109;50.992;6.918;2022-10-31T08:24:11;4.00;;;2.03;;
27704;SDS011;15109;50.992;6.918;2022-10-31T08:27:33;3.80;;;2.13;;
27704;SDS011;15109;50.992;6.918;2022-10-31T08:30:56;19.20;;;2.78;;
27704;SDS011;15109;50.992;6.918;2022-10-31T08:34:36;4.90;;;2.60;;
27704;SDS011;15109;50.992;6.918;2022-10-31T08:38:26;5.63;;;2.75;;
27704;SDS011;15109;50.992;6.918;2022-10-31T08:41:50;4.57;;;2.85;;
27704;SDS011;15109;50.992;6.918;2022-10-31T08:45:11;4.68;;;2.30;;
27704;SDS011;15109;50.992;6.918;2022-10-31T08:48:32;8.55;;;2.67;;
27704;SDS011;15109;50.992;6.918;2022-10-31T08:51:55;5.30;;;2.47;;
27704;SDS011;15109;50.992;6.918;2022-10-31T08:55:16;3.60;;;2.03;;
27704;SDS011;15109;50.992;6.918;2022-10-31T08:58:56;4.80;;;2.67;;
27704;SDS011;15109;50.992;6.918;2022-10-31T09:02:37;4.00;;;2.35;;
27704;SDS011;15109;50.992;6.918;2022-10-31T09:06:00;5.47;;;2.67;;
27704;SDS011;15109;50.992;6.918;2022-10-31T09:09:23;6.97;;;2.45;;
27704;SDS011;15109;50.992;6.918;2022-10-31T09:12:44;4.28;;;2.28;;
27704;SDS011;15109;50.992;6.918;2022-10-31T09:16:24;12.20;;;3.00;;
27704;SDS011;15109;50.992;6.918;2022-10-31T09:19:45;6.80;;;2.30;;
27704;SDS011;15109;50.992;6.918;2022-10-31T09:23:10;4.18;;;2.40;;
27704;SDS011;15109;50.992;6.918;2022-10-31T09:26:33;4.78;;;2.25;;
27704;SDS011;15109;50.992;6.918;2022-10-31T09:30:13;4.13;;;2.20;;
27704;SDS011;15109;50.992;6.918;2022-10-31T09:33:34;9.32;;;2.72;;
27704;SDS011;15109;50.992;6.918;2022-10-31T09:37:15;2.40;;;1.60;;
27704;SDS011;15109;50.992;6.918;2022-10-31T09:40:37;19.70;;;2.13;;
27704;SDS011;15109;50.992;6.918;2022-10-31T09:51:20;4.28;;;2.03;;
27704;SDS011;15109;50.992;6.918;2022-10-31T09:55:06;6.47;;;2.42;;
27704;SDS011;15109;50.992;6.918;2022-10-31T09:58:30;4.82;;;2.17;;
27704;SDS011;15109;50.992;6.918;2022-10-31T10:02:05;7.20;;;2.10;;
27704;SDS011;15109;50.992;6.918;2022-10-31T10:05:54;3.03;;;1.85;;
27704;SDS011;15109;50.992;6.918;2022-10-31T10:09:47;3.70;;;2.13;;
27704;SDS011;15109;50.992;6.918;2022-10-31T10:20:35;5.25;;;2.42;;
27704;SDS011;15109;50.992;6.918;2022-10-31T10:24:42;5.75;;;2.72;;
27704;SDS011;15109;50.992;6.918;2022-10-31T10:28:21;4.10;;;2.33;;
27704;SDS011;15109;50.992;6.918;2022-10-31T10:31:47;3.95;;;1.98;;
27704;SDS011;15109;50.992;6.918;2022-10-31T10:39:04;3.92;;;1.88;;
27704;SDS011;15109;50.992;6.918;2022-10-31T10:42:35;3.50;;;1.90;;
27704;SDS011;15109;50.992;6.918;2022-10-31T10:49:56;3.05;;;1.48;;
27704;SDS011;15109;50.992;6.918;2022-10-31T10:57:42;3.17;;;1.75;;
27704;SDS011;15109;50.992;6.918;2022-10-31T11:01:21;6.33;;;2.80;;
27704;SDS011;15109;50.992;6.918;2022-10-31T11:04:43;4.15;;;1.90;;
27704;SDS011;15109;50.992;6.918;2022-10-31T11:08:08;5.05;;;2.00;;
27704;SDS011;15109;50.992;6.918;2022-10-31T11:11:29;4.47;;;2.42;;
27704;SDS011;15109;50.992;6.918;2022-10-31T11:14:54;2.53;;;1.50;;
27704;SDS011;15109;50.992;6.918;2022-10-31T11:18:24;5.53;;;2.25;;
27704;SDS011;15109;50.992;6.918;2022-10-31T11:21:47;1.80;;;1.23;;
27704;SDS011;15109;50.992;6.918;2022-10-31T11:28:39;3.15;;;1.48;;
27704;SDS011;15109;50.992;6.918;2022-10-31T11:32:00;4.38;;;2.05;;
27704;SDS011;15109;50.992;6.918;2022-10-31T11:35:22;2.72;;;1.88;;
27704;SDS011;15109;50.992;6.918;2022-10-31T11:38:45;4.13;;;2.03;;
27704;SDS011;15109;50.992;6.918;2022-10-31T11:42:06;3.30;;;1.73;;
27704;SDS011;15109;50.992;6.918;2022-10-31T11:45:31;3.20;;;1.88;;
27704;SDS011;15109;50.992;6.918;2022-10-31T11:48:54;7.40;;;1.75;;
27704;SDS011;15109;50.992;6.918;2022-10-31T11:52:20;3.13;;;1.52;;
27704;SDS011;15109;50.992;6.918;2022-10-31T11:55:46;6.20;;;1.83;;
27704;SDS011;15109;50.992;6.918;2022-10-31T11:59:17;2.78;;;1.52;;
27704;SDS011;15109;50.992;6.918;2022-10-31T12:02:49;5.95;;;1.73;;
27704;SDS011;15109;50.992;6.918;2022-10-31T12:06:20;3.42;;;1.73;;
27704;SDS011;15109;50.992;6.918;2022-10-31T12:09:44;6.80;;;2.28;;
27704;SDS011;15109;50.992;6.918;2022-10-31T12:13:16;2.33;;;1.23;;
27704;SDS011;15109;50.992;6.918;2022-10-31T12:16:53;3.97;;;2.08;;
27704;SDS011;15109;50.992;6.918;2022-10-31T12:34:56;1.92;;;1.15;;
27704;SDS011;15109;50.992;6.918;2022-10-31T12:45:56;10.55;;;1.80;;
27704;SDS011;15109;50.992;6.918;2022-10-31T12:52:51;4.45;;;1.65;;
27704;SDS011;15109;50.992;6.918;2022-10-31T12:59:53;3.15;;;1.80;;
27704;SDS011;15109;50.992;6.918;2022-10-31T13:06:58;1.50;;;1.13;;
27704;SDS011;15109;50.992;6.918;2022-10-31T13:10:25;4.53;;;1.70;;
27704;SDS011;15109;50.992;6.918;2022-10-31T13:14:42;4.47;;;1.45;;
27704;SDS011;15109;50.992;6.918;2022-10-31T13:18:04;2.17;;;1.13;;
27704;SDS011;15109;50.992;6.918;2022-10-31T13:21:37;4.32;;;1.38;;
27704;SDS011;15109;50.992;6.918;2022-10-31T13:25:10;3.05;;;1.48;;
27704;SDS011;15109;50.992;6.918;2022-10-31T13:28:46;2.80;;;1.27;;
27704;SDS011;15109;50.992;6.918;2022-10-31T13:32:37;5.55;;;1.75;;
27704;SDS011;15109;50.992;6.918;2022-10-31T13:43:17;12.15;;;2.10;;
27704;SDS011;15109;50.992;6.918;2022-10-31T13:46:42;4.20;;;1.70;;
27704;SDS011;15109;50.992;6.918;2022-10-31T13:50:24;0.98;;;0.88;;
27704;SDS011;15109;50.992;6.918;2022-10-31T13:57:32;4.43;;;1.75;;
27704;SDS011;15109;50.992;6.918;2022-10-31T14:00:59;1.48;;;1.02;;
27704;SDS011;15109;50.992;6.918;2022-10-31T14:04:22;2.95;;;1.48;;
27704;SDS011;15109;50.992;6.918;2022-10-31T14:07:45;2.03;;;1.20;;
27704;SDS011;15109;50.992;6.918;2022-10-31T14:11:07;2.88;;;1.52;;
27704;SDS011;15109;50.992;6.918;2022-10-31T14:14:43;3.42;;;1.02;;
27704;SDS011;15109;50.992;6.918;2022-10-31T14:18:17;2.80;;;1.00;;
27704;SDS011;15109;50.992;6.918;2022-10-31T14:21:49;3.05;;;1.23;;
27704;SDS011;15109;50.992;6.918;2022-10-31T14:25:31;4.90;;;1.40;;
27704;SDS011;15109;50.992;6.918;2022-10-31T14:28:58;1.83;;;0.95;;
27704;SDS011;15109;50.992;6.918;2022-10-31T14:32:40;3.80;;;1.55;;
27704;SDS011;15109;50.992;6.918;2022-10-31T14:36:08;4.57;;;1.27;;
27704;SDS011;15109;50.992;6.918;2022-10-31T14:39:36;4.13;;;1.48;;
27704;SDS011;15109;50.992;6.918;2022-10-31T14:43:29;2.28;;;1.08;;
27704;SDS011;15109;50.992;6.918;2022-10-31T14:47:04;5.97;;;1.10;;
27704;SDS011;15109;50.992;6.918;2022-10-31T14:50:41;1.38;;;0.90;;
27704;SDS011;15109;50.992;6.918;2022-10-31T14:54:10;2.63;;;1.05;;
27704;SDS011;15109;50.992;6.918;2022-10-31T14:57:35;3.75;;;1.65;;
27704;SDS011;15109;50.992;6.918;2022-10-31T15:01:03;2.35;;;1.17;;
27704;SDS011;15109;50.992;6.918;2022-10-31T15:04:25;2.83;;;1.33;;
27704;SDS011;15109;50.992;6.918;2022-10-31T15:07:56;2.50;;;1.05;;
27704;SDS011;15109;50.992;6.918;2022-10-31T15:14:41;3.72;;;1.40;;
27704;SDS011;15109;50.992;6.918;2022-10-31T15:18:03;4.30;;;1.75;;
27704;SDS011;15109;50.992;6.918;2022-10-31T15:21:25;2.25;;;1.05;;
27704;SDS011;15109;50.992;6.918;2022-10-31T15:24:48;2.22;;;1.08;;
27704;SDS011;15109;50.992;6.918;2022-10-31T15:28:21;1.95;;;0.93;;
27704;SDS011;15109;50.992;6.918;2022-10-31T15:31:57;6.80;;;1.60;;
27704;SDS011;15109;50.992;6.918;2022-10-31T15:35:27;3.42;;;1.20;;
27704;SDS011;15109;50.992;6.918;2022-10-31T15:38:49;2.25;;;1.25;;
27704;SDS011;15109;50.992;6.918;2022-10-31T15:42:30;3.80;;;1.58;;
27704;SDS011;15109;50.992;6.918;2022-10-31T15:45:55;2.85;;;1.27;;
27704;SDS011;15109;50.992;6.918;2022-10-31T15:52:50;5.35;;;1.33;;
27704;SDS011;15109;50.992;6.918;2022-10-31T15:56:13;1.98;;;1.00;;
27704;SDS011;15109;50.992;6.918;2022-10-31T15:59:48;5.43;;;1.38;;
27704;SDS011;15109;50.992;6.918;2022-10-31T16:06:40;2.95;;;1.27;;
27704;SDS011;15109;50.992;6.918;2022-10-31T16:10:02;4.68;;;1.92;;
27704;SDS011;15109;50.992;6.918;2022-10-31T16:13:28;3.22;;;1.52;;
27704;SDS011;15109;50.992;6.918;2022-10-31T16:16:52;2.30;;;1.17;;
27704;SDS011;15109;50.992;6.918;2022-10-31T16:20:22;2.53;;;1.20;;
27704;SDS011;15109;50.992;6.918;2022-10-31T16:23:46;8.43;;;1.75;;
27704;SDS011;15109;50.992;6.918;2022-10-31T16:27:18;3.22;;;1.30;;
27704;SDS011;15109;50.992;6.918;2022-10-31T16:30:47;3.20;;;0.98;;
27704;SDS011;15109;50.992;6.918;2022-10-31T16:34:43;1.65;;;0.98;;
27704;SDS011;15109;50.992;6.918;2022-10-31T16:37:57;1.45;;;1.05;;
27704;SDS011;15109;50.992;6.918;2022-10-31T16:41:18;8.07;;;1.58;;
27704;SDS011;15109;50.992;6.918;2022-10-31T16:44:39;2.28;;;1.42;;
27704;SDS011;15109;50.992;6.918;2022-10-31T16:48:09;4.00;;;1.48;;
27704;SDS011;15109;50.992;6.918;2022-10-31T16:51:35;1.17;;;0.73;;
27704;SDS011;15109;50.992;6.918;2022-10-31T16:54:56;4.32;;;1.23;;
27704;SDS011;15109;50.992;6.918;2022-10-31T16:58:21;2.08;;;1.13;;
27704;SDS011;15109;50.992;6.918;2022-10-31T17:01:45;2.92;;;1.30;;
27704;SDS011;15109;50.992;6.918;2022-10-31T17:05:10;3.50;;;0.82;;
27704;SDS011;15109;50.992;6.918;2022-10-31T17:08:33;4.97;;;1.60;;
27704;SDS011;15109;50.992;6.918;2022-10-31T17:11:54;3.63;;;1.55;;
27704;SDS011;15109;50.992;6.918;2022-10-31T17:15:19;2.28;;;1.25;;
27704;SDS011;15109;50.992;6.918;2022-10-31T17:18:45;6.70;;;1.80;;
27704;SDS011;15109;50.992;6.918;2022-10-31T17:22:08;2.30;;;1.35;;
27704;SDS011;15109;50.992;6.918;2022-10-31T17:25:34;3.47;;;1.55;;
27704;SDS011;15109;50.992;6.918;2022-10-31T17:28:56;8.05;;;1.58;;
27704;SDS011;15109;50.992;6.918;2022-10-31T17:32:17;1.77;;;1.27;;
27704;SDS011;15109;50.992;6.918;2022-10-31T17:35:39;4.53;;;1.60;;
27704;SDS011;15109;50.992;6.918;2022-10-31T17:39:04;1.77;;;1.05;;
27704;SDS011;15109;50.992;6.918;2022-10-31T17:42:27;2.35;;;1.27;;
27704;SDS011;15109;50.992;6.918;2022-10-31T17:45:48;14.43;;;1.67;;
27704;SDS011;15109;50.992;6.918;2022-10-31T17:49:13;2.58;;;1.27;;
27704;SDS011;15109;50.992;6.918;2022-10-31T17:52:34;3.08;;;1.45;;
27704;SDS011;15109;50.992;6.918;2022-10-31T17:55:59;1.75;;;1.00;;
27704;SDS011;15109;50.992;6.918;2022-10-31T17:59:24;3.60;;;1.52;;
27704;SDS011;15109;50.992;6.918;2022-10-31T18:02:46;2.13;;;1.33;;
27704;SDS011;15109;50.992;6.918;2022-10-31T18:06:10;3.35;;;1.17;;
27704;SDS011;15109;50.992;6.918;2022-10-31T18:09:34;4.68;;;1.60;;
27704;SDS011;15109;50.992;6.918;2022-10-31T18:12:55;3.15;;;1.17;;
27704;SDS011;15109;50.992;6.918;2022-10-31T18:16:16;2.40;;;1.42;;
27704;SDS011;15109;50.992;6.918;2022-10-31T18:19:38;6.90;;;1.75;;
27704;SDS011;15109;50.992;6.918;2022-10-31T18:23:00;8.25;;;1.77;;
27704;SDS011;15109;50.992;6.918;2022-10-31T18:26:21;5.50;;;3.15;;
27704;SDS011;15109;50.992;6.918;2022-10-31T18:29:43;5.65;;;2.60;;
27704;SDS011;15109;50.992;6.918;2022-10-31T18:33:08;3.72;;;1.80;;
27704;SDS011;15109;50.992;6.918;2022-10-31T18:36:29;6.93;;;1.95;;
27704;SDS011;15109;50.992;6.918;2022-10-31T18:39:50;2.58;;;1.35;;
27704;SDS011;15109;50.992;6.918;2022-10-31T18:43:11;2.85;;;1.38;;
27704;SDS011;15109;50.992;6.918;2022-10-31T18:46:32;4.93;;;1.38;;
27704;SDS011;15109;50.992;6.918;2022-10-31T18:49:54;2.10;;;1.20;;
27704;SDS011;15109;50.992;6.918;2022-10-31T18:53:15;3.20;;;1.70;;
27704;SDS011;15109;50.992;6.918;2022-10-31T18:56:36;2.40;;;1.10;;
27704;SDS011;15109;50.992;6.918;2022-10-31T18:59:57;2.75;;;1.20;;
27704;SDS011;15109;50.992;6.918;2022-10-31T19:03:18;7.95;;;2.13;;
27704;SDS011;15109;50.992;6.918;2022-10-31T19:06:39;2.50;;;1.40;;
27704;SDS011;15109;50.992;6.918;2022-10-31T19:10:03;3.13;;;1.77;;
27704;SDS011;15109;50.992;6.918;2022-10-31T19:13:27;3.67;;;1.95;;
27704;SDS011;15109;50.992;6.918;2022-10-31T19:16:48;2.63;;;1.45;;
27704;SDS011;15109;50.992;6.918;2022-10-31T19:20:10;3.13;;;1.63;;
27704;SDS011;15109;50.992;6.918;2022-10-31T19:23:31;2.45;;;1.10;;
27704;SDS011;15109;50.992;6.918;2022-10-31T19:26:52;5.80;;;1.40;;
27704;SDS011;15109;50.992;6.918;2022-10-31T19:30:13;3.58;;;1.55;;
27704;SDS011;15109;50.992;6.918;2022-10-31T19:33:34;2.72;;;1.35;;
27704;SDS011;15109;50.992;6.918;2022-10-31T19:36:56;6.93;;;1.63;;
27704;SDS011;15109;50.992;6.918;2022-10-31T19:40:20;6.60;;;2.10;;
27704;SDS011;15109;50.992;6.918;2022-10-31T19:43:41;2.05;;;1.25;;
27704;SDS011;15109;50.992;6.918;2022-10-31T19:47:03;2.45;;;1.38;;
27704;SDS011;15109;50.992;6.918;2022-10-31T19:50:24;9.70;;;2.20;;
27704;SDS011;15109;50.992;6.918;2022-10-31T19:53:48;2.53;;;1.30;;
27704;SDS011;15109;50.992;6.918;2022-10-31T19:57:09;3.22;;;1.35;;
27704;SDS011;15109;50.992;6.918;2022-10-31T20:00:36;3.22;;;1.17;;
27704;SDS011;15109;50.992;6.918;2022-10-31T20:04:00;2.53;;;1.30;;
27704;SDS011;15109;50.992;6.918;2022-10-31T20:07:21;5.68;;;2.28;;
27704;SDS011;15109;50.992;6.918;2022-10-31T20:10:54;3.78;;;1.58;;
27704;SDS011;15109;50.992;6.918;2022-10-31T20:14:18;4.70;;;2.00;;
27704;SDS011;15109;50.992;6.918;2022-10-31T20:17:44;4.35;;;2.00;;
27704;SDS011;15109;50.992;6.918;2022-10-31T20:21:11;1.95;;;1.23;;
27704;SDS011;15109;50.992;6.918;2022-10-31T20:24:33;19.00;;;1.88;;
27704;SDS011;15109;50.992;6.918;2022-10-31T20:27:57;4.05;;;2.08;;
27704;SDS011;15109;50.992;6.918;2022-10-31T20:31:20;3.22;;;1.63;;
27704;SDS011;15109;50.992;6.918;2022-10-31T20:34:45;3.33;;;1.55;;
27704;SDS011;15109;50.992;6.918;2022-10-31T20:38:07;3.45;;;1.65;;
27704;SDS011;15109;50.992;6.918;2022-10-31T20:41:35;4.60;;;1.95;;
27704;SDS011;15109;50.992;6.918;2022-10-31T20:44:59;2.80;;;1.55;;
27704;SDS011;15109;50.992;6.918;2022-10-31T20:48:21;3.67;;;1.98;;
27704;SDS011;15109;50.992;6.918;2022-10-31T20:51:44;3.17;;;1.55;;
27704;SDS011;15109;50.992;6.918;2022-10-31T20:55:07;2.35;;;1.30;;
27704;SDS011;15109;50.992;6.918;2022-10-31T20:58:31;3.83;;;1.92;;
27704;SDS011;15109;50.992;6.918;2022-10-31T21:01:52;2.35;;;1.25;;
27704;SDS011;15109;50.992;6.918;2022-10-31T21:05:13;2.58;;;1.25;;
27704;SDS011;15109;50.992;6.918;2022-10-31T21:08:37;6.53;;;1.70;;
27704;SDS011;15109;50.992;6.918;2022-10-31T21:11:59;2.58;;;1.30;;
27704;SDS011;15109;50.992;6.918;2022-10-31T21:15:23;3.42;;;1.65;;
27704;SDS011;15109;50.992;6.918;2022-10-31T21:18:44;2.33;;;1.27;;
27704;SDS011;15109;50.992;6.918;2022-10-31T21:22:11;3.70;;;1.70;;
27704;SDS011;15109;50.992;6.918;2022-10-31T21:25:32;11.13;;;1.75;;
27704;SDS011;15109;50.992;6.918;2022-10-31T21:28:59;2.97;;;1.45;;
27704;SDS011;15109;50.992;6.918;2022-10-31T21:32:20;2.40;;;1.38;;
27704;SDS011;15109;50.992;6.918;2022-10-31T21:35:51;2.88;;;1.63;;
27704;SDS011;15109;50.992;6.918;2022-10-31T21:39:14;2.58;;;1.35;;
27704;SDS011;15109;50.992;6.918;2022-10-31T21:42:35;2.20;;;1.33;;
27704;SDS011;15109;50.992;6.918;2022-10-31T21:46:16;3.00;;;1.50;;
27704;SDS011;15109;50.992;6.918;2022-10-31T21:49:39;4.57;;;1.50;;
27704;SDS011;15109;50.992;6.918;2022-10-31T21:53:00;4.80;;;2.13;;
27704;SDS011;15109;50.992;6.918;2022-10-31T21:56:41;1.75;;;1.17;;
27704;SDS011;15109;50.992;6.918;2022-10-31T22:00:03;5.93;;;2.17;;
27704;SDS011;15109;50.992;6.918;2022-10-31T22:03:26;2.72;;;1.60;;
27704;SDS011;15109;50.992;6.918;2022-10-31T22:06:47;3.15;;;1.40;;
27704;SDS011;15109;50.992;6.918;2022-10-31T22:10:09;2.83;;;1.75;;
27704;SDS011;15109;50.992;6.918;2022-10-31T22:13:33;3.03;;;1.73;;
27704;SDS011;15109;50.992;6.918;2022-10-31T22:16:56;8.35;;;1.50;;
27704;SDS011;15109;50.992;6.918;2022-10-31T22:20:17;2.03;;;1.15;;
27704;SDS011;15109;50.992;6.918;2022-10-31T22:23:41;4.72;;;1.70;;
27704;SDS011;15109;50.992;6.918;2022-10-31T22:27:05;3.45;;;1.35;;
27704;SDS011;15109;50.992;6.918;2022-10-31T22:30:26;4.38;;;1.80;;
27704;SDS011;15109;50.992;6.918;2022-10-31T22:33:48;3.38;;;1.58;;
27704;SDS011;15109;50.992;6.918;2022-10-31T22:37:10;2.53;;;1.23;;
27704;SDS011;15109;50.992;6.918;2022-10-31T22:40:33;2.63;;;1.48;;
27704;SDS011;15109;50.992;6.918;2022-10-31T22:43:55;7.47;;;1.90;;
27704;SDS011;15109;50.992;6.918;2022-10-31T22:47:17;8.85;;;2.75;;
27704;SDS011;15109;50.992;6.918;2022-10-31T22:50:38;7.10;;;2.10;;